Point Reyes Station, CA

10:30 AM PST on December 10, 2016 (GMT -0800)
Point Reyes Mesa bluff | | Change Station

Elev 70 ft 38.08 °N, 122.82 °W | Updated 46 seconds ago

Mostly Cloudy
Mostly Cloudy
57.4 °F
Feels Like 57.4 °F
N
3.0
Wind Variable Wind from WSW
Gusts 4.0 mph

Today
High -- | Low -- °F
--% Chance of Precip.
Yesterday
High -- | Low -- °F
Precip. -- in
Pressure 30.11 in
Visibility 1.0 miles
Clouds Overcast 400 ft
Dew Point 57 °F
Humidity 98%
Rainfall 0.35 in
Snow Depth Not available.
7:17 AM 4:51 PM
Waxing Gibbous, 85% visible
METAR KO69 101815Z AUTO 22004KT 1SM OVC004 15/14 A3011 RMK AO1
Pressure 30.11 in
Visibility 1.0 miles
Clouds Overcast 400 ft
Dew Point 57 °F
Humidity 98%
Rainfall 0.35 in
Snow Depth Not available.
7:17 AM 4:51 PM
Waxing Gibbous, 85% visible
METAR KO69 101815Z AUTO 22004KT 1SM OVC004 15/14 A3011 RMK AO1

10-Day Weather Forecast

Almanac

Astronomy

Dec. 10, 2016 Rise Set
Actual Time
Civil Twilight
Nautical Twilight
Astronomical Twilight
Moon
Length of Visible Light
Length of Day
Tomorrow will be .
, % of the Moon is Illuminated

Today's Extremes

State Highs State Lows

Community

WunderPhotos

Upload Photos

1,956,617 photos uploaded!

WunderBlog® & News

Nearby

Air Quality

  Air Quality AQ Index Pollutant
Not available.

Snow Depth

Station Depth Elevation

Earthquake Activity

City Distance Mag. Time & Date
Minimum magnitude displayed is 2.5.

Coastal Water Temperatures

Place Temperature

Stations

Nearby Weather Stations

Station Location Temp. Windchill Dew Point Humidity Wind Precip. Elev Updated Type
                   

Watches & Warnings

There are currently no watches in effect.